sensor_id;sensor_type;location;lat;lon;timestamp;P1;durP1;ratioP1;P2;durP2;ratioP2
7233;SDS011;3658;47.992;10.158;2023-09-12T00:00:08;6.80;;;5.73;;
7233;SDS011;3658;47.992;10.158;2023-09-12T00:02:36;6.07;;;5.57;;
7233;SDS011;3658;47.992;10.158;2023-09-12T00:05:03;6.20;;;5.60;;
7233;SDS011;3658;47.992;10.158;2023-09-12T00:07:31;6.37;;;5.77;;
7233;SDS011;3658;47.992;10.158;2023-09-12T00:09:59;7.10;;;6.40;;
7233;SDS011;3658;47.992;10.158;2023-09-12T00:12:26;6.50;;;5.90;;
7233;SDS011;3658;47.992;10.158;2023-09-12T00:14:54;7.47;;;6.23;;
7233;SDS011;3658;47.992;10.158;2023-09-12T00:17:21;6.73;;;6.03;;
7233;SDS011;3658;47.992;10.158;2023-09-12T00:19:47;6.20;;;5.70;;
7233;SDS011;3658;47.992;10.158;2023-09-12T00:22:14;6.07;;;5.47;;
7233;SDS011;3658;47.992;10.158;2023-09-12T00:24:41;6.00;;;5.50;;
7233;SDS011;3658;47.992;10.158;2023-09-12T00:27:09;5.93;;;5.33;;
7233;SDS011;3658;47.992;10.158;2023-09-12T00:29:36;6.13;;;5.53;;
7233;SDS011;3658;47.992;10.158;2023-09-12T00:32:03;6.00;;;5.40;;
7233;SDS011;3658;47.992;10.158;2023-09-12T00:34:30;6.50;;;5.20;;
7233;SDS011;3658;47.992;10.158;2023-09-12T00:36:57;5.33;;;4.90;;
7233;SDS011;3658;47.992;10.158;2023-09-12T00:39:24;5.53;;;5.03;;
7233;SDS011;3658;47.992;10.158;2023-09-12T00:41:51;6.33;;;5.73;;
7233;SDS011;3658;47.992;10.158;2023-09-12T00:44:19;5.90;;;5.40;;
7233;SDS011;3658;47.992;10.158;2023-09-12T00:46:46;6.00;;;5.50;;
7233;SDS011;3658;47.992;10.158;2023-09-12T00:49:14;5.63;;;5.13;;
7233;SDS011;3658;47.992;10.158;2023-09-12T00:51:43;6.50;;;5.90;;
7233;SDS011;3658;47.992;10.158;2023-09-12T00:54:12;5.67;;;5.17;;
7233;SDS011;3658;47.992;10.158;2023-09-12T00:56:39;5.97;;;5.47;;
7233;SDS011;3658;47.992;10.158;2023-09-12T00:59:06;6.10;;;5.60;;
7233;SDS011;3658;47.992;10.158;2023-09-12T01:01:34;5.63;;;5.13;;
7233;SDS011;3658;47.992;10.158;2023-09-12T01:04:01;5.80;;;5.30;;
7233;SDS011;3658;47.992;10.158;2023-09-12T01:06:29;5.73;;;5.23;;
7233;SDS011;3658;47.992;10.158;2023-09-12T01:08:59;6.10;;;5.17;;
7233;SDS011;3658;47.992;10.158;2023-09-12T01:11:26;5.60;;;5.10;;
7233;SDS011;3658;47.992;10.158;2023-09-12T01:13:55;5.67;;;5.17;;
7233;SDS011;3658;47.992;10.158;2023-09-12T01:16:21;5.30;;;4.90;;
7233;SDS011;3658;47.992;10.158;2023-09-12T01:18:50;5.37;;;4.87;;
7233;SDS011;3658;47.992;10.158;2023-09-12T01:21:27;4.77;;;4.37;;
7233;SDS011;3658;47.992;10.158;2023-09-12T01:24:09;5.50;;;5.00;;
7233;SDS011;3658;47.992;10.158;2023-09-12T01:26:56;5.63;;;5.13;;
7233;SDS011;3658;47.992;10.158;2023-09-12T01:29:33;5.07;;;4.67;;
7233;SDS011;3658;47.992;10.158;2023-09-12T01:32:01;4.70;;;4.30;;
7233;SDS011;3658;47.992;10.158;2023-09-12T01:34:29;4.87;;;4.47;;
7233;SDS011;3658;47.992;10.158;2023-09-12T01:36:56;5.33;;;4.83;;
7233;SDS011;3658;47.992;10.158;2023-09-12T01:39:22;5.27;;;4.70;;
7233;SDS011;3658;47.992;10.158;2023-09-12T01:41:49;5.30;;;4.80;;
7233;SDS011;3658;47.992;10.158;2023-09-12T01:44:19;4.70;;;4.30;;
7233;SDS011;3658;47.992;10.158;2023-09-12T01:46:50;4.60;;;4.20;;
7233;SDS011;3658;47.992;10.158;2023-09-12T01:49:19;4.97;;;4.57;;
7233;SDS011;3658;47.992;10.158;2023-09-12T01:51:50;4.80;;;4.40;;
7233;SDS011;3658;47.992;10.158;2023-09-12T01:54:18;4.67;;;4.23;;
7233;SDS011;3658;47.992;10.158;2023-09-12T01:56:46;4.50;;;4.10;;
7233;SDS011;3658;47.992;10.158;2023-09-12T01:59:13;4.53;;;4.13;;
7233;SDS011;3658;47.992;10.158;2023-09-12T02:01:41;4.60;;;4.20;;
7233;SDS011;3658;47.992;10.158;2023-09-12T02:04:09;4.93;;;4.53;;
7233;SDS011;3658;47.992;10.158;2023-09-12T02:06:36;4.80;;;4.40;;
7233;SDS011;3658;47.992;10.158;2023-09-12T02:09:03;4.90;;;4.50;;
7233;SDS011;3658;47.992;10.158;2023-09-12T02:11:30;4.77;;;4.37;;
7233;SDS011;3658;47.992;10.158;2023-09-12T02:13:57;5.07;;;4.57;;
7233;SDS011;3658;47.992;10.158;2023-09-12T02:16:23;4.30;;;3.90;;
7233;SDS011;3658;47.992;10.158;2023-09-12T02:18:50;4.93;;;4.53;;
7233;SDS011;3658;47.992;10.158;2023-09-12T02:21:18;4.50;;;4.10;;
7233;SDS011;3658;47.992;10.158;2023-09-12T02:23:45;4.93;;;4.53;;
7233;SDS011;3658;47.992;10.158;2023-09-12T02:26:12;4.70;;;4.30;;
7233;SDS011;3658;47.992;10.158;2023-09-12T02:28:39;4.53;;;4.13;;
7233;SDS011;3658;47.992;10.158;2023-09-12T02:31:09;4.33;;;3.93;;
7233;SDS011;3658;47.992;10.158;2023-09-12T02:33:37;4.63;;;4.23;;
7233;SDS011;3658;47.992;10.158;2023-09-12T02:36:04;4.50;;;4.10;;
7233;SDS011;3658;47.992;10.158;2023-09-12T02:38:35;4.10;;;3.70;;
7233;SDS011;3658;47.992;10.158;2023-09-12T02:41:04;4.53;;;4.13;;
7233;SDS011;3658;47.992;10.158;2023-09-12T02:43:31;4.50;;;4.10;;
7233;SDS011;3658;47.992;10.158;2023-09-12T02:45:57;4.33;;;3.93;;
7233;SDS011;3658;47.992;10.158;2023-09-12T02:48:24;4.23;;;3.93;;
7233;SDS011;3658;47.992;10.158;2023-09-12T02:50:51;4.17;;;3.87;;
7233;SDS011;3658;47.992;10.158;2023-09-12T02:53:18;4.20;;;3.80;;
7233;SDS011;3658;47.992;10.158;2023-09-12T02:55:46;4.33;;;3.93;;
7233;SDS011;3658;47.992;10.158;2023-09-12T02:58:13;3.93;;;3.63;;
7233;SDS011;3658;47.992;10.158;2023-09-12T03:00:39;4.20;;;3.80;;
7233;SDS011;3658;47.992;10.158;2023-09-12T03:03:06;4.37;;;3.97;;
7233;SDS011;3658;47.992;10.158;2023-09-12T03:05:34;4.13;;;3.83;;
7233;SDS011;3658;47.992;10.158;2023-09-12T03:08:01;4.27;;;3.90;;
7233;SDS011;3658;47.992;10.158;2023-09-12T03:10:28;4.40;;;4.00;;
7233;SDS011;3658;47.992;10.158;2023-09-12T03:12:56;4.03;;;3.73;;
7233;SDS011;3658;47.992;10.158;2023-09-12T03:15:23;3.90;;;3.60;;
7233;SDS011;3658;47.992;10.158;2023-09-12T03:17:50;4.20;;;3.80;;
7233;SDS011;3658;47.992;10.158;2023-09-12T03:20:17;3.90;;;3.60;;
7233;SDS011;3658;47.992;10.158;2023-09-12T03:22:44;4.10;;;3.80;;
7233;SDS011;3658;47.992;10.158;2023-09-12T03:25:12;4.00;;;3.70;;
7233;SDS011;3658;47.992;10.158;2023-09-12T03:27:38;4.40;;;4.00;;
7233;SDS011;3658;47.992;10.158;2023-09-12T03:30:07;3.63;;;3.10;;
7233;SDS011;3658;47.992;10.158;2023-09-12T03:32:35;3.47;;;3.17;;
7233;SDS011;3658;47.992;10.158;2023-09-12T03:35:02;3.73;;;3.43;;
7233;SDS011;3658;47.992;10.158;2023-09-12T03:37:29;3.67;;;3.37;;
7233;SDS011;3658;47.992;10.158;2023-09-12T03:39:55;4.50;;;4.10;;
7233;SDS011;3658;47.992;10.158;2023-09-12T03:42:22;3.70;;;3.40;;
7233;SDS011;3658;47.992;10.158;2023-09-12T03:44:49;3.90;;;3.60;;
7233;SDS011;3658;47.992;10.158;2023-09-12T03:47:17;3.87;;;3.57;;
7233;SDS011;3658;47.992;10.158;2023-09-12T03:49:44;3.80;;;3.50;;
7233;SDS011;3658;47.992;10.158;2023-09-12T03:52:11;3.80;;;3.50;;
7233;SDS011;3658;47.992;10.158;2023-09-12T03:54:37;3.50;;;3.20;;
7233;SDS011;3658;47.992;10.158;2023-09-12T03:57:04;3.77;;;3.47;;
7233;SDS011;3658;47.992;10.158;2023-09-12T03:59:31;3.67;;;3.37;;
7233;SDS011;3658;47.992;10.158;2023-09-12T04:01:58;3.83;;;3.53;;
7233;SDS011;3658;47.992;10.158;2023-09-12T04:04:26;3.70;;;3.40;;
7233;SDS011;3658;47.992;10.158;2023-09-12T04:06:53;3.60;;;3.30;;
7233;SDS011;3658;47.992;10.158;2023-09-12T04:09:20;3.67;;;3.37;;
7233;SDS011;3658;47.992;10.158;2023-09-12T04:11:47;3.60;;;3.30;;
7233;SDS011;3658;47.992;10.158;2023-09-12T04:14:14;3.70;;;3.40;;
7233;SDS011;3658;47.992;10.158;2023-09-12T04:16:41;3.47;;;3.17;;
7233;SDS011;3658;47.992;10.158;2023-09-12T04:19:07;3.53;;;3.23;;
7233;SDS011;3658;47.992;10.158;2023-09-12T04:21:35;3.47;;;3.17;;
7233;SDS011;3658;47.992;10.158;2023-09-12T04:24:02;3.67;;;3.37;;
7233;SDS011;3658;47.992;10.158;2023-09-12T04:26:29;3.30;;;3.00;;
7233;SDS011;3658;47.992;10.158;2023-09-12T04:28:56;3.60;;;3.30;;
7233;SDS011;3658;47.992;10.158;2023-09-12T04:31:23;3.13;;;2.93;;
7233;SDS011;3658;47.992;10.158;2023-09-12T04:33:50;3.27;;;3.07;;
7233;SDS011;3658;47.992;10.158;2023-09-12T04:36:23;3.07;;;2.87;;
7233;SDS011;3658;47.992;10.158;2023-09-12T04:38:51;3.40;;;3.10;;
7233;SDS011;3658;47.992;10.158;2023-09-12T04:41:18;3.13;;;2.93;;
7233;SDS011;3658;47.992;10.158;2023-09-12T04:43:45;3.60;;;3.30;;
7233;SDS011;3658;47.992;10.158;2023-09-12T04:46:17;3.10;;;2.90;;
7233;SDS011;3658;47.992;10.158;2023-09-12T04:48:43;3.60;;;3.30;;
7233;SDS011;3658;47.992;10.158;2023-09-12T04:51:10;3.47;;;3.17;;
7233;SDS011;3658;47.992;10.158;2023-09-12T04:53:37;3.40;;;3.00;;
7233;SDS011;3658;47.992;10.158;2023-09-12T04:56:06;3.30;;;3.00;;
7233;SDS011;3658;47.992;10.158;2023-09-12T04:58:35;3.23;;;2.97;;
7233;SDS011;3658;47.992;10.158;2023-09-12T05:01:01;3.57;;;3.27;;
7233;SDS011;3658;47.992;10.158;2023-09-12T05:03:28;3.23;;;3.00;;
7233;SDS011;3658;47.992;10.158;2023-09-12T05:05:56;3.07;;;2.87;;
7233;SDS011;3658;47.992;10.158;2023-09-12T05:08:23;3.10;;;2.80;;
7233;SDS011;3658;47.992;10.158;2023-09-12T05:10:50;3.40;;;3.10;;
7233;SDS011;3658;47.992;10.158;2023-09-12T05:13:18;4.30;;;3.90;;
7233;SDS011;3658;47.992;10.158;2023-09-12T05:15:46;5.37;;;4.03;;
7233;SDS011;3658;47.992;10.158;2023-09-12T05:18:13;5.30;;;4.07;;
7233;SDS011;3658;47.992;10.158;2023-09-12T05:20:40;5.77;;;4.40;;
7233;SDS011;3658;47.992;10.158;2023-09-12T05:23:07;5.67;;;4.63;;
7233;SDS011;3658;47.992;10.158;2023-09-12T05:25:33;6.33;;;5.73;;
7233;SDS011;3658;47.992;10.158;2023-09-12T05:28:00;6.43;;;5.83;;
7233;SDS011;3658;47.992;10.158;2023-09-12T05:30:29;6.20;;;5.60;;
7233;SDS011;3658;47.992;10.158;2023-09-12T05:32:56;6.70;;;6.10;;
7233;SDS011;3658;47.992;10.158;2023-09-12T05:35:22;6.13;;;5.53;;
7233;SDS011;3658;47.992;10.158;2023-09-12T05:37:50;7.20;;;6.43;;
7233;SDS011;3658;47.992;10.158;2023-09-12T05:40:18;8.13;;;7.33;;
7233;SDS011;3658;47.992;10.158;2023-09-12T05:42:46;8.53;;;7.57;;
7233;SDS011;3658;47.992;10.158;2023-09-12T05:45:12;8.17;;;7.37;;
7233;SDS011;3658;47.992;10.158;2023-09-12T05:47:41;9.03;;;7.83;;
7233;SDS011;3658;47.992;10.158;2023-09-12T05:50:08;11.20;;;7.97;;
7233;SDS011;3658;47.992;10.158;2023-09-12T05:52:35;10.47;;;7.90;;
7233;SDS011;3658;47.992;10.158;2023-09-12T05:55:02;8.97;;;7.97;;
7233;SDS011;3658;47.992;10.158;2023-09-12T05:57:29;8.10;;;7.07;;
7233;SDS011;3658;47.992;10.158;2023-09-12T05:59:58;9.77;;;8.27;;
7233;SDS011;3658;47.992;10.158;2023-09-12T06:02:26;10.47;;;7.70;;
7233;SDS011;3658;47.992;10.158;2023-09-12T06:04:55;11.63;;;7.40;;
7233;SDS011;3658;47.992;10.158;2023-09-12T06:07:21;12.57;;;7.50;;
7233;SDS011;3658;47.992;10.158;2023-09-12T06:09:48;12.90;;;7.80;;
7233;SDS011;3658;47.992;10.158;2023-09-12T06:12:15;21.77;;;7.97;;
7233;SDS011;3658;47.992;10.158;2023-09-12T06:14:43;12.10;;;7.27;;
7233;SDS011;3658;47.992;10.158;2023-09-12T06:17:10;9.53;;;7.80;;
7233;SDS011;3658;47.992;10.158;2023-09-12T06:19:37;12.30;;;7.13;;
7233;SDS011;3658;47.992;10.158;2023-09-12T06:22:06;17.73;;;7.77;;
7233;SDS011;3658;47.992;10.158;2023-09-12T06:24:32;10.27;;;7.13;;
7233;SDS011;3658;47.992;10.158;2023-09-12T06:26:59;11.17;;;7.50;;
7233;SDS011;3658;47.992;10.158;2023-09-12T06:29:26;13.00;;;7.13;;
7233;SDS011;3658;47.992;10.158;2023-09-12T06:31:53;15.20;;;7.93;;
7233;SDS011;3658;47.992;10.158;2023-09-12T06:34:21;12.13;;;7.23;;
7233;SDS011;3658;47.992;10.158;2023-09-12T06:36:48;11.90;;;6.93;;
7233;SDS011;3658;47.992;10.158;2023-09-12T06:39:16;11.70;;;6.90;;
7233;SDS011;3658;47.992;10.158;2023-09-12T06:41:43;9.67;;;6.77;;
7233;SDS011;3658;47.992;10.158;2023-09-12T06:44:09;13.07;;;7.37;;
7233;SDS011;3658;47.992;10.158;2023-09-12T06:46:36;9.67;;;6.57;;
7233;SDS011;3658;47.992;10.158;2023-09-12T06:49:03;14.80;;;6.83;;
7233;SDS011;3658;47.992;10.158;2023-09-12T06:51:30;13.43;;;7.37;;
7233;SDS011;3658;47.992;10.158;2023-09-12T06:53:57;7.90;;;6.07;;
7233;SDS011;3658;47.992;10.158;2023-09-12T06:56:25;10.03;;;6.60;;
7233;SDS011;3658;47.992;10.158;2023-09-12T06:58:52;7.17;;;5.87;;
7233;SDS011;3658;47.992;10.158;2023-09-12T07:01:20;10.20;;;6.57;;
7233;SDS011;3658;47.992;10.158;2023-09-12T07:03:48;12.67;;;6.33;;
7233;SDS011;3658;47.992;10.158;2023-09-12T07:06:18;9.53;;;5.93;;
7233;SDS011;3658;47.992;10.158;2023-09-12T07:08:45;8.83;;;6.10;;
7233;SDS011;3658;47.992;10.158;2023-09-12T07:11:12;10.43;;;6.13;;
7233;SDS011;3658;47.992;10.158;2023-09-12T07:13:40;12.07;;;6.40;;
7233;SDS011;3658;47.992;10.158;2023-09-12T07:16:07;7.17;;;5.73;;
7233;SDS011;3658;47.992;10.158;2023-09-12T07:18:34;7.53;;;6.23;;
7233;SDS011;3658;47.992;10.158;2023-09-12T07:21:01;11.67;;;7.13;;
7233;SDS011;3658;47.992;10.158;2023-09-12T07:23:29;6.83;;;6.10;;
7233;SDS011;3658;47.992;10.158;2023-09-12T07:25:57;8.83;;;6.17;;
7233;SDS011;3658;47.992;10.158;2023-09-12T07:28:24;7.03;;;5.63;;
7233;SDS011;3658;47.992;10.158;2023-09-12T07:30:53;8.37;;;6.20;;
7233;SDS011;3658;47.992;10.158;2023-09-12T07:33:20;7.77;;;6.47;;
7233;SDS011;3658;47.992;10.158;2023-09-12T07:35:47;8.03;;;6.27;;
7233;SDS011;3658;47.992;10.158;2023-09-12T07:38:14;7.70;;;6.03;;
7233;SDS011;3658;47.992;10.158;2023-09-12T07:40:41;6.50;;;5.80;;
7233;SDS011;3658;47.992;10.158;2023-09-12T07:43:08;8.77;;;5.83;;
7233;SDS011;3658;47.992;10.158;2023-09-12T07:45:36;6.53;;;5.53;;
7233;SDS011;3658;47.992;10.158;2023-09-12T07:48:05;6.63;;;5.93;;
7233;SDS011;3658;47.992;10.158;2023-09-12T07:50:32;6.53;;;5.60;;
7233;SDS011;3658;47.992;10.158;2023-09-12T07:52:59;6.77;;;5.50;;
7233;SDS011;3658;47.992;10.158;2023-09-12T07:55:26;6.80;;;6.17;;
7233;SDS011;3658;47.992;10.158;2023-09-12T07:57:55;6.73;;;5.67;;
7233;SDS011;3658;47.992;10.158;2023-09-12T08:00:22;7.90;;;5.90;;
7233;SDS011;3658;47.992;10.158;2023-09-12T08:02:50;5.63;;;5.00;;
7233;SDS011;3658;47.992;10.158;2023-09-12T08:05:18;7.37;;;5.80;;
7233;SDS011;3658;47.992;10.158;2023-09-12T08:07:45;7.07;;;5.23;;
7233;SDS011;3658;47.992;10.158;2023-09-12T08:10:12;6.33;;;5.73;;
7233;SDS011;3658;47.992;10.158;2023-09-12T08:12:38;6.17;;;5.57;;
7233;SDS011;3658;47.992;10.158;2023-09-12T08:15:07;6.00;;;5.40;;
7233;SDS011;3658;47.992;10.158;2023-09-12T08:17:34;5.50;;;4.83;;
7233;SDS011;3658;47.992;10.158;2023-09-12T08:20:01;5.97;;;5.37;;
7233;SDS011;3658;47.992;10.158;2023-09-12T08:22:30;7.07;;;5.23;;
7233;SDS011;3658;47.992;10.158;2023-09-12T08:24:57;5.33;;;4.90;;
7233;SDS011;3658;47.992;10.158;2023-09-12T08:27:23;6.50;;;5.87;;
7233;SDS011;3658;47.992;10.158;2023-09-12T08:29:50;7.03;;;5.40;;
7233;SDS011;3658;47.992;10.158;2023-09-12T08:32:17;5.93;;;5.13;;
7233;SDS011;3658;47.992;10.158;2023-09-12T08:34:44;6.17;;;5.33;;
7233;SDS011;3658;47.992;10.158;2023-09-12T08:37:11;6.23;;;5.63;;
7233;SDS011;3658;47.992;10.158;2023-09-12T08:39:42;7.23;;;5.40;;
7233;SDS011;3658;47.992;10.158;2023-09-12T08:42:11;5.60;;;5.10;;
7233;SDS011;3658;47.992;10.158;2023-09-12T08:44:39;6.67;;;5.23;;
7233;SDS011;3658;47.992;10.158;2023-09-12T08:47:07;5.63;;;4.97;;
7233;SDS011;3658;47.992;10.158;2023-09-12T08:49:34;6.00;;;4.83;;
7233;SDS011;3658;47.992;10.158;2023-09-12T08:52:02;6.23;;;4.93;;
7233;SDS011;3658;47.992;10.158;2023-09-12T08:54:29;6.27;;;5.23;;
7233;SDS011;3658;47.992;10.158;2023-09-12T08:56:57;5.87;;;5.10;;
7233;SDS011;3658;47.992;10.158;2023-09-12T08:59:26;5.80;;;5.13;;
7233;SDS011;3658;47.992;10.158;2023-09-12T09:01:54;5.27;;;4.77;;
7233;SDS011;3658;47.992;10.158;2023-09-12T09:04:23;5.77;;;5.27;;
7233;SDS011;3658;47.992;10.158;2023-09-12T09:06:51;5.87;;;5.27;;
7233;SDS011;3658;47.992;10.158;2023-09-12T09:09:19;5.03;;;4.53;;
7233;SDS011;3658;47.992;10.158;2023-09-12T09:11:47;5.30;;;4.70;;
7233;SDS011;3658;47.992;10.158;2023-09-12T09:14:15;6.13;;;5.00;;
7233;SDS011;3658;47.992;10.158;2023-09-12T09:16:44;5.53;;;4.43;;
7233;SDS011;3658;47.992;10.158;2023-09-12T09:19:11;5.27;;;4.87;;
7233;SDS011;3658;47.992;10.158;2023-09-12T09:21:38;6.40;;;5.23;;
7233;SDS011;3658;47.992;10.158;2023-09-12T09:24:06;5.77;;;5.17;;
7233;SDS011;3658;47.992;10.158;2023-09-12T09:26:44;5.33;;;4.83;;
7233;SDS011;3658;47.992;10.158;2023-09-12T09:29:13;5.43;;;4.93;;
7233;SDS011;3658;47.992;10.158;2023-09-12T09:31:42;5.20;;;4.70;;
7233;SDS011;3658;47.992;10.158;2023-09-12T09:34:11;5.07;;;4.43;;
7233;SDS011;3658;47.992;10.158;2023-09-12T09:36:40;4.90;;;4.40;;
7233;SDS011;3658;47.992;10.158;2023-09-12T09:39:08;4.93;;;4.50;;
7233;SDS011;3658;47.992;10.158;2023-09-12T09:41:36;4.87;;;4.47;;
7233;SDS011;3658;47.992;10.158;2023-09-12T09:44:03;5.27;;;4.47;;
7233;SDS011;3658;47.992;10.158;2023-09-12T09:46:32;4.93;;;4.40;;
7233;SDS011;3658;47.992;10.158;2023-09-12T09:48:59;5.40;;;4.87;;
7233;SDS011;3658;47.992;10.158;2023-09-12T09:51:40;4.80;;;4.40;;
7233;SDS011;3658;47.992;10.158;2023-09-12T09:54:08;5.20;;;4.70;;
7233;SDS011;3658;47.992;10.158;2023-09-12T09:56:39;5.40;;;4.90;;
7233;SDS011;3658;47.992;10.158;2023-09-12T09:59:13;5.70;;;4.67;;
7233;SDS011;3658;47.992;10.158;2023-09-12T10:01:41;4.67;;;4.27;;
7233;SDS011;3658;47.992;10.158;2023-09-12T10:04:10;5.03;;;4.57;;
7233;SDS011;3658;47.992;10.158;2023-09-12T10:06:37;5.43;;;4.50;;
7233;SDS011;3658;47.992;10.158;2023-09-12T10:09:05;4.60;;;4.20;;
7233;SDS011;3658;47.992;10.158;2023-09-12T10:11:35;5.87;;;4.40;;
7233;SDS011;3658;47.992;10.158;2023-09-12T10:14:04;4.93;;;4.47;;
7233;SDS011;3658;47.992;10.158;2023-09-12T10:16:32;5.40;;;4.90;;
7233;SDS011;3658;47.992;10.158;2023-09-12T10:19:04;6.30;;;4.83;;
7233;SDS011;3658;47.992;10.158;2023-09-12T10:21:40;5.07;;;4.33;;
7233;SDS011;3658;47.992;10.158;2023-09-12T10:24:17;4.73;;;4.33;;
7233;SDS011;3658;47.992;10.158;2023-09-12T10:26:46;4.70;;;4.30;;
7233;SDS011;3658;47.992;10.158;2023-09-12T10:29:14;4.70;;;4.30;;
7233;SDS011;3658;47.992;10.158;2023-09-12T10:31:41;4.83;;;4.43;;
7233;SDS011;3658;47.992;10.158;2023-09-12T10:34:10;4.30;;;3.90;;
7233;SDS011;3658;47.992;10.158;2023-09-12T10:36:38;4.53;;;4.10;;
7233;SDS011;3658;47.992;10.158;2023-09-12T10:39:06;4.80;;;4.40;;
7233;SDS011;3658;47.992;10.158;2023-09-12T10:41:34;4.60;;;4.20;;
7233;SDS011;3658;47.992;10.158;2023-09-12T10:44:04;4.80;;;4.30;;
7233;SDS011;3658;47.992;10.158;2023-09-12T10:46:36;4.37;;;3.97;;
7233;SDS011;3658;47.992;10.158;2023-09-12T10:49:06;4.57;;;4.07;;
7233;SDS011;3658;47.992;10.158;2023-09-12T10:51:36;5.53;;;4.50;;
7233;SDS011;3658;47.992;10.158;2023-09-12T10:54:04;4.87;;;4.37;;
7233;SDS011;3658;47.992;10.158;2023-09-12T10:56:32;4.60;;;3.93;;
7233;SDS011;3658;47.992;10.158;2023-09-12T10:59:09;4.60;;;4.20;;
7233;SDS011;3658;47.992;10.158;2023-09-12T11:01:40;4.20;;;3.80;;
7233;SDS011;3658;47.992;10.158;2023-09-12T11:06:59;4.43;;;4.03;;
7233;SDS011;3658;47.992;10.158;2023-09-12T11:09:26;4.80;;;4.40;;
7233;SDS011;3658;47.992;10.158;2023-09-12T11:11:58;4.50;;;4.10;;
7233;SDS011;3658;47.992;10.158;2023-09-12T11:14:28;4.67;;;4.27;;
7233;SDS011;3658;47.992;10.158;2023-09-12T11:19:50;4.30;;;3.90;;
7233;SDS011;3658;47.992;10.158;2023-09-12T11:22:26;4.80;;;4.30;;
7233;SDS011;3658;47.992;10.158;2023-09-12T11:24:56;4.33;;;3.93;;
7233;SDS011;3658;47.992;10.158;2023-09-12T11:27:25;4.47;;;4.10;;
7233;SDS011;3658;47.992;10.158;2023-09-12T11:30:03;4.50;;;4.07;;
7233;SDS011;3658;47.992;10.158;2023-09-12T11:32:31;4.33;;;4.03;;
7233;SDS011;3658;47.992;10.158;2023-09-12T11:34:59;4.37;;;3.97;;
7233;SDS011;3658;47.992;10.158;2023-09-12T11:37:31;4.57;;;4.17;;
7233;SDS011;3658;47.992;10.158;2023-09-12T11:40:00;4.30;;;4.00;;
7233;SDS011;3658;47.992;10.158;2023-09-12T11:42:27;3.70;;;3.40;;
7233;SDS011;3658;47.992;10.158;2023-09-12T11:44:55;4.13;;;3.83;;
7233;SDS011;3658;47.992;10.158;2023-09-12T11:47:22;4.43;;;4.03;;
7233;SDS011;3658;47.992;10.158;2023-09-12T11:49:50;4.00;;;3.70;;
7233;SDS011;3658;47.992;10.158;2023-09-12T11:52:17;4.10;;;3.70;;
7233;SDS011;3658;47.992;10.158;2023-09-12T11:54:46;4.50;;;4.10;;
7233;SDS011;3658;47.992;10.158;2023-09-12T11:57:14;4.30;;;3.90;;
7233;SDS011;3658;47.992;10.158;2023-09-12T11:59:42;4.20;;;3.80;;
7233;SDS011;3658;47.992;10.158;2023-09-12T12:02:10;4.27;;;3.87;;
7233;SDS011;3658;47.992;10.158;2023-09-12T12:04:38;4.37;;;4.03;;
7233;SDS011;3658;47.992;10.158;2023-09-12T12:07:05;3.70;;;3.40;;
7233;SDS011;3658;47.992;10.158;2023-09-12T12:09:33;3.87;;;3.57;;
7233;SDS011;3658;47.992;10.158;2023-09-12T12:12:08;4.07;;;3.77;;
7233;SDS011;3658;47.992;10.158;2023-09-12T12:14:35;3.97;;;3.67;;
7233;SDS011;3658;47.992;10.158;2023-09-12T12:17:06;3.90;;;3.60;;
7233;SDS011;3658;47.992;10.158;2023-09-12T12:19:34;4.00;;;3.70;;
7233;SDS011;3658;47.992;10.158;2023-09-12T12:22:02;4.30;;;3.90;;
7233;SDS011;3658;47.992;10.158;2023-09-12T12:24:36;3.90;;;3.60;;
7233;SDS011;3658;47.992;10.158;2023-09-12T12:27:04;3.87;;;3.57;;
7233;SDS011;3658;47.992;10.158;2023-09-12T12:29:32;3.77;;;3.47;;
7233;SDS011;3658;47.992;10.158;2023-09-12T12:32:01;4.20;;;3.80;;
7233;SDS011;3658;47.992;10.158;2023-09-12T12:34:30;4.10;;;3.80;;
7233;SDS011;3658;47.992;10.158;2023-09-12T12:36:57;3.70;;;3.40;;
7233;SDS011;3658;47.992;10.158;2023-09-12T12:39:24;3.83;;;3.43;;
7233;SDS011;3658;47.992;10.158;2023-09-12T12:41:51;3.97;;;3.43;;
7233;SDS011;3658;47.992;10.158;2023-09-12T12:44:20;3.50;;;3.20;;
7233;SDS011;3658;47.992;10.158;2023-09-12T12:46:47;3.80;;;3.50;;
7233;SDS011;3658;47.992;10.158;2023-09-12T12:49:15;3.67;;;3.37;;
7233;SDS011;3658;47.992;10.158;2023-09-12T12:51:42;4.03;;;3.63;;
7233;SDS011;3658;47.992;10.158;2023-09-12T12:54:09;3.73;;;3.43;;
7233;SDS011;3658;47.992;10.158;2023-09-12T12:56:35;3.63;;;3.33;;
7233;SDS011;3658;47.992;10.158;2023-09-12T12:59:04;4.40;;;3.97;;
7233;SDS011;3658;47.992;10.158;2023-09-12T13:01:35;3.90;;;3.50;;
7233;SDS011;3658;47.992;10.158;2023-09-12T13:04:04;3.60;;;3.30;;
7233;SDS011;3658;47.992;10.158;2023-09-12T13:06:32;4.13;;;3.73;;
7233;SDS011;3658;47.992;10.158;2023-09-12T13:09:01;3.90;;;3.60;;
7233;SDS011;3658;47.992;10.158;2023-09-12T13:11:30;3.73;;;3.43;;
7233;SDS011;3658;47.992;10.158;2023-09-12T13:13:58;3.97;;;3.67;;
7233;SDS011;3658;47.992;10.158;2023-09-12T13:16:25;3.93;;;3.63;;
7233;SDS011;3658;47.992;10.158;2023-09-12T13:18:53;3.70;;;3.40;;
7233;SDS011;3658;47.992;10.158;2023-09-12T13:21:20;3.83;;;3.53;;
7233;SDS011;3658;47.992;10.158;2023-09-12T13:23:46;3.80;;;3.50;;
7233;SDS011;3658;47.992;10.158;2023-09-12T13:26:14;3.43;;;3.17;;
7233;SDS011;3658;47.992;10.158;2023-09-12T13:28:40;3.60;;;3.30;;
7233;SDS011;3658;47.992;10.158;2023-09-12T13:31:07;3.33;;;3.10;;
7233;SDS011;3658;47.992;10.158;2023-09-12T13:33:34;4.47;;;3.23;;
7233;SDS011;3658;47.992;10.158;2023-09-12T13:36:02;3.30;;;3.10;;
7233;SDS011;3658;47.992;10.158;2023-09-12T13:38:29;3.60;;;3.30;;
7233;SDS011;3658;47.992;10.158;2023-09-12T13:40:56;3.43;;;3.13;;
7233;SDS011;3658;47.992;10.158;2023-09-12T13:43:23;3.47;;;3.20;;
7233;SDS011;3658;47.992;10.158;2023-09-12T13:45:49;3.50;;;3.20;;
7233;SDS011;3658;47.992;10.158;2023-09-12T13:48:16;3.53;;;3.23;;
7233;SDS011;3658;47.992;10.158;2023-09-12T13:50:43;3.63;;;3.33;;
7233;SDS011;3658;47.992;10.158;2023-09-12T13:53:11;3.17;;;2.97;;
7233;SDS011;3658;47.992;10.158;2023-09-12T13:55:38;3.90;;;3.50;;
7233;SDS011;3658;47.992;10.158;2023-09-12T13:58:05;3.60;;;3.30;;
7233;SDS011;3658;47.992;10.158;2023-09-12T14:00:32;3.83;;;3.53;;
7233;SDS011;3658;47.992;10.158;2023-09-12T14:03:00;3.30;;;3.00;;
7233;SDS011;3658;47.992;10.158;2023-09-12T14:05:28;3.70;;;3.20;;
7233;SDS011;3658;47.992;10.158;2023-09-12T14:07:54;3.37;;;3.07;;
7233;SDS011;3658;47.992;10.158;2023-09-12T14:10:22;2.90;;;2.70;;
7233;SDS011;3658;47.992;10.158;2023-09-12T14:12:49;3.70;;;3.40;;
7233;SDS011;3658;47.992;10.158;2023-09-12T14:15:16;3.40;;;3.10;;
7233;SDS011;3658;47.992;10.158;2023-09-12T14:17:43;3.20;;;3.00;;
7233;SDS011;3658;47.992;10.158;2023-09-12T14:20:10;3.60;;;3.30;;
7233;SDS011;3658;47.992;10.158;2023-09-12T14:22:40;3.50;;;3.20;;
7233;SDS011;3658;47.992;10.158;2023-09-12T14:25:07;2.97;;;2.77;;
7233;SDS011;3658;47.992;10.158;2023-09-12T14:27:40;3.23;;;3.03;;
7233;SDS011;3658;47.992;10.158;2023-09-12T14:30:08;3.30;;;3.07;;
7233;SDS011;3658;47.992;10.158;2023-09-12T14:32:37;3.53;;;3.23;;
7233;SDS011;3658;47.992;10.158;2023-09-12T14:35:04;3.43;;;3.13;;
7233;SDS011;3658;47.992;10.158;2023-09-12T14:37:32;3.40;;;3.10;;
7233;SDS011;3658;47.992;10.158;2023-09-12T14:40:00;3.37;;;3.07;;
7233;SDS011;3658;47.992;10.158;2023-09-12T14:42:30;3.70;;;3.40;;
7233;SDS011;3658;47.992;10.158;2023-09-12T14:44:58;3.23;;;3.03;;
7233;SDS011;3658;47.992;10.158;2023-09-12T14:47:25;3.70;;;3.40;;
7233;SDS011;3658;47.992;10.158;2023-09-12T14:49:55;3.20;;;3.00;;
7233;SDS011;3658;47.992;10.158;2023-09-12T14:52:22;4.17;;;3.10;;
7233;SDS011;3658;47.992;10.158;2023-09-12T14:54:51;5.00;;;4.27;;
7233;SDS011;3658;47.992;10.158;2023-09-12T14:57:19;5.67;;;3.93;;
7233;SDS011;3658;47.992;10.158;2023-09-12T14:59:48;8.63;;;5.63;;
7233;SDS011;3658;47.992;10.158;2023-09-12T15:02:17;9.03;;;6.13;;
7233;SDS011;3658;47.992;10.158;2023-09-12T15:04:44;7.73;;;5.70;;
7233;SDS011;3658;47.992;10.158;2023-09-12T15:07:11;6.63;;;5.93;;
7233;SDS011;3658;47.992;10.158;2023-09-12T15:09:37;12.07;;;6.13;;